Shoshone, California Weather observations

Data are for observation ending at time listed.
 Day   Time    Ave.   Ave.  Ave.  Vector   Max.   Stn.    Total    Solar   Ave.  
  of    of     Air    Rel.  Wind   Wind    Wind   Baro.  Precip.   Rad.    Soil  
Year   Day     Temp.  Hum.  Speed  Dir.    Gust   Pres.                    Temp. 
2015   (PST)    F      %     mph   deg.    mph     mb.     in.     W/m2     F   
------------------------------------------------------------------------------
 146    2:00   75.3    30    1.3   159      8.1    964     0.00       0    99999.0
 146    3:00   73.1    33    0.3   126      3.4    964     0.00       0    41.1
 146    4:00   68.9    37    1.6    42      5.5    964     0.00       0    83.4
 146    5:00   66.3    40    1.8    47      5.7    965     0.00       7    99999.0
 146    6:00   67.6    39    0.7    36      4.7    965     0.00     105    99999.0
 146    7:00   73.6    32    1.9    39      4.0    966     0.00     328    99999.0
 146    8:00   78.8    27    2.4   127      8.0    966     0.00     542    99999.0
 146    9:00   81.0    26    4.4   162     12.9    966     0.00     730    115.8
 146   10:00   84.5    23    4.3   158     14.5    966     0.00     886    99999.0
 146   11:00   87.4    18    5.9   165     14.6    965     0.00     985    99999.0
 146   12:00   89.2    16    5.5   161     17.5    964     0.00    1023    99999.0
 146   13:00   90.8    15    5.4   163     15.9    964     0.00    1010    99999.0
 146   14:00   92.2    14    5.3   159     14.2    963     0.00     938    119.9
 146   15:00   92.7    13    5.3   170     14.2    963     0.00     789    76.7
 146   16:00   93.5    12    4.3   162     14.2    962     0.00     592    40.8
 146   17:00   93.1    12    3.4   157     12.1    962     0.00     401    99999.0
 146   18:00   91.1    11    5.9   171     15.1    961     0.00     160    99999.0
 146   19:00   88.8    13    4.0   170     10.9    962     0.00      33    99999.0
 146   20:00   87.0    14    4.9   161     15.8    962     0.00       0    99999.0
 146   21:00   85.9    15    5.5   160     14.1    963     0.00       0    99999.0
 146   22:00   84.0    16    6.5   179     13.7    963     0.00       0    99999.0
 146   23:00   82.3    19    6.2   173     15.3    963     0.00       0     2.4
 147    0:00   80.5    22    5.5   172     11.8    963     0.00       0    21.4
 147    1:00   77.0    24    1.5   162      8.3    964     0.00       0    48.1

Return to Shoshone, California graphs page.


Western Regional Climate Center,wrcc@dri.edu